createdAt,value
2017-12-17T00:00:51.810Z,15.03
2017-12-17T00:03:20.046Z,13.27
2017-12-17T00:05:47.514Z,13.97
2017-12-17T00:08:14.987Z,13.87
2017-12-17T00:10:43.226Z,13.23
2017-12-17T00:13:10.704Z,13.60
2017-12-17T00:15:38.195Z,13.83
2017-12-17T00:18:06.423Z,13.70
2017-12-17T00:20:33.906Z,14.47
2017-12-17T00:23:01.374Z,14.63
2017-12-17T00:25:29.630Z,14.23
2017-12-17T00:27:57.089Z,13.93
2017-12-17T00:30:25.339Z,15.63
2017-12-17T00:32:52.798Z,15.93
2017-12-17T00:35:20.275Z,16.60
2017-12-17T00:37:47.761Z,17.03
2017-12-17T00:40:15.218Z,18.10
2017-12-17T00:42:42.699Z,17.17
2017-12-17T00:45:10.195Z,18.57
2017-12-17T00:47:37.676Z,20.20
2017-12-17T00:50:05.919Z,21.33
2017-12-17T00:52:33.406Z,20.20
2017-12-17T00:55:01.670Z,22.17
2017-12-17T00:57:29.227Z,23.60
2017-12-17T00:59:56.723Z,23.50
2017-12-17T01:02:24.175Z,24.57
2017-12-17T01:04:51.663Z,25.70
2017-12-17T01:07:19.135Z,26.80
2017-12-17T01:09:46.595Z,26.00
2017-12-17T01:12:14.071Z,26.60
2017-12-17T01:14:42.298Z,28.10
2017-12-17T01:17:09.779Z,26.80
2017-12-17T01:19:37.239Z,29.97
2017-12-17T01:22:04.715Z,27.00
2017-12-17T01:24:32.966Z,29.50
2017-12-17T01:27:00.450Z,27.43
2017-12-17T01:29:28.678Z,26.00
2017-12-17T01:31:56.147Z,28.90
2017-12-17T01:34:23.625Z,26.80
2017-12-17T01:36:51.114Z,25.37
2017-12-17T01:39:19.336Z,26.77
2017-12-17T01:41:48.436Z,25.50
2017-12-17T01:44:15.898Z,24.63
2017-12-17T01:46:43.369Z,26.13
2017-12-17T01:49:10.851Z,24.60
2017-12-17T01:51:39.071Z,24.73
2017-12-17T01:54:06.535Z,23.20
2017-12-17T01:56:34.052Z,21.40
2017-12-17T01:59:01.527Z,21.03
2017-12-17T02:01:29.007Z,23.80
2017-12-17T02:03:56.498Z,20.80
2017-12-17T02:06:24.734Z,19.63
2017-12-17T02:08:52.190Z,19.73
2017-12-17T02:11:19.669Z,17.93
2017-12-17T02:13:47.174Z,20.43
2017-12-17T02:16:14.647Z,21.30
2017-12-17T02:18:42.118Z,20.30
2017-12-17T02:21:09.571Z,20.33
2017-12-17T02:23:37.051Z,20.70
2017-12-17T02:26:04.515Z,20.27
2017-12-17T02:28:32.767Z,20.37
2017-12-17T02:31:00.262Z,19.10
2017-12-17T02:33:28.490Z,18.83
2017-12-17T02:35:55.976Z,17.50
2017-12-17T02:38:24.199Z,20.10
2017-12-17T02:40:51.691Z,18.57
2017-12-17T02:43:19.178Z,19.37
2017-12-17T02:45:47.428Z,17.60
2017-12-17T02:48:14.888Z,21.57
2017-12-17T02:50:42.382Z,19.30
2017-12-17T02:53:09.854Z,19.80
2017-12-17T02:55:37.363Z,19.37
2017-12-17T02:58:04.860Z,21.13
2017-12-17T03:00:32.326Z,20.77
2017-12-17T03:02:59.843Z,20.93
2017-12-17T03:05:28.127Z,21.30
2017-12-17T03:07:56.352Z,22.30
2017-12-17T03:10:23.826Z,23.50
2017-12-17T03:12:51.298Z,21.57
2017-12-17T03:15:18.781Z,24.70
2017-12-17T03:17:46.247Z,25.30
2017-12-17T03:20:13.738Z,25.23
2017-12-17T03:22:41.198Z,24.77
2017-12-17T03:25:08.677Z,27.30
2017-12-17T03:27:36.186Z,25.10
2017-12-17T03:30:03.651Z,28.30
2017-12-17T03:32:31.141Z,27.02
2017-12-17T03:34:58.602Z,25.02
2017-12-17T03:37:26.078Z,27.27
2017-12-17T03:39:54.338Z,27.60
2017-12-17T03:42:21.815Z,27.07
2017-12-17T03:44:50.034Z,27.80
2017-12-17T03:47:17.531Z,27.33
2017-12-17T03:49:45.799Z,28.67
2017-12-17T03:52:13.262Z,28.70
2017-12-17T03:54:41.495Z,27.20
2017-12-17T03:57:08.990Z,28.45
2017-12-17T03:59:36.463Z,26.33
2017-12-17T04:02:04.698Z,26.95
2017-12-17T04:04:32.185Z,25.80
2017-12-17T04:07:00.428Z,25.83
2017-12-17T04:09:27.906Z,26.50
2017-12-17T04:11:55.382Z,25.67
2017-12-17T04:14:22.877Z,27.17
2017-12-17T04:16:50.338Z,24.80
2017-12-17T04:19:17.832Z,26.37
2017-12-17T04:21:46.055Z,26.30
2017-12-17T04:24:13.534Z,25.97
2017-12-17T04:26:41.011Z,25.55
2017-12-17T04:29:08.493Z,25.98
2017-12-17T04:31:36.747Z,26.07
2017-12-17T04:34:04.203Z,27.70
2017-12-17T04:36:31.679Z,26.43
2017-12-17T04:38:59.931Z,27.20
2017-12-17T04:41:28.184Z,27.60
2017-12-17T04:43:55.662Z,27.10
2017-12-17T04:46:23.155Z,27.58
2017-12-17T04:48:51.387Z,24.47
2017-12-17T04:51:18.867Z,27.90
2017-12-17T04:53:46.336Z,29.27
2017-12-17T04:56:14.591Z,28.30
2017-12-17T04:58:42.068Z,29.43
2017-12-17T05:01:10.315Z,29.27
2017-12-17T05:03:37.774Z,32.70
2017-12-17T05:06:05.254Z,30.97
2017-12-17T05:08:33.495Z,32.97
2017-12-17T05:11:00.972Z,32.60
2017-12-17T05:13:28.447Z,30.67
2017-12-17T05:15:56.679Z,31.60
2017-12-17T05:18:24.170Z,30.40
2017-12-17T05:20:52.402Z,33.50
2017-12-17T05:23:19.883Z,31.13
2017-12-17T05:25:47.343Z,31.30
2017-12-17T05:28:15.163Z,31.10
2017-12-17T05:30:42.655Z,32.10
2017-12-17T05:33:10.126Z,33.03
2017-12-17T05:35:38.383Z,33.40
2017-12-17T05:38:05.855Z,33.10
2017-12-17T05:40:33.334Z,36.27
2017-12-17T05:43:00.805Z,34.20
2017-12-17T05:45:28.278Z,34.00
2017-12-17T05:47:55.771Z,36.87
2017-12-17T05:50:23.242Z,40.47
2017-12-17T05:52:51.513Z,39.50
2017-12-17T05:55:18.996Z,37.33
2017-12-17T05:57:46.482Z,35.23
2017-12-17T06:00:13.951Z,36.97
2017-12-17T06:02:41.447Z,36.60
2017-12-17T06:05:09.678Z,37.43
2017-12-17T06:07:37.143Z,37.80
2017-12-17T06:10:04.620Z,36.17
2017-12-17T06:12:32.098Z,39.23
2017-12-17T06:15:00.343Z,39.43
2017-12-17T06:17:27.810Z,38.23
2017-12-17T06:19:55.323Z,39.23
2017-12-17T06:22:22.790Z,38.13
2017-12-17T06:24:50.259Z,36.77
2017-12-17T06:27:17.748Z,39.77
2017-12-17T06:29:45.991Z,40.30
2017-12-17T06:32:13.467Z,38.80
2017-12-17T06:34:42.738Z,38.27
2017-12-17T06:37:10.197Z,40.90
2017-12-17T06:39:37.685Z,38.40
2017-12-17T06:42:05.143Z,39.50
2017-12-17T06:44:32.611Z,39.70
2017-12-17T06:47:00.863Z,39.73
2017-12-17T06:49:28.322Z,39.70
2017-12-17T06:51:55.806Z,40.13
2017-12-17T06:54:24.035Z,39.90
2017-12-17T06:56:51.531Z,41.17
2017-12-17T06:59:19.843Z,40.70
2017-12-17T07:01:47.318Z,42.60
2017-12-17T07:04:14.787Z,40.97
2017-12-17T07:06:42.276Z,43.30
2017-12-17T07:09:09.739Z,41.20
2017-12-17T07:11:37.993Z,45.30
2017-12-17T07:14:05.495Z,43.70
2017-12-17T07:16:32.964Z,40.93
2017-12-17T07:19:00.444Z,43.13
2017-12-17T07:21:27.993Z,44.70
2017-12-17T07:23:56.181Z,42.57
2017-12-17T07:26:23.717Z,43.83
2017-12-17T07:28:51.942Z,41.47
2017-12-17T07:31:20.185Z,46.87
2017-12-17T07:33:47.670Z,43.30
2017-12-17T07:36:16.195Z,44.40
2017-12-17T07:38:43.653Z,44.53
2017-12-17T07:41:11.135Z,46.27
2017-12-17T07:43:38.916Z,45.07
2017-12-17T07:46:06.398Z,45.93
2017-12-17T07:48:34.690Z,46.17
2017-12-17T07:51:02.163Z,43.47
2017-12-17T07:53:29.874Z,42.50
2017-12-17T07:55:57.359Z,46.93
2017-12-17T07:58:24.839Z,47.80
2017-12-17T08:00:52.405Z,48.03
2017-12-17T08:03:19.889Z,43.97
2017-12-17T08:05:47.355Z,43.47
2017-12-17T08:08:15.167Z,44.10
2017-12-17T08:10:42.631Z,43.87
2017-12-17T08:13:10.223Z,45.53
2017-12-17T08:15:38.503Z,42.92
2017-12-17T08:18:05.974Z,43.30
2017-12-17T08:20:33.544Z,43.17
2017-12-17T08:23:01.999Z,44.23
2017-12-17T08:25:29.566Z,42.23
2017-12-17T08:27:57.218Z,43.50
2017-12-17T08:30:24.744Z,42.10
2017-12-17T08:32:52.198Z,39.57
2017-12-17T08:35:19.677Z,39.50
2017-12-17T08:37:47.154Z,39.50
2017-12-17T08:40:14.649Z,40.37
2017-12-17T08:42:42.127Z,38.37
2017-12-17T08:45:09.591Z,41.30
2017-12-17T08:47:37.061Z,38.03
2017-12-17T08:50:04.518Z,40.13
2017-12-17T08:52:31.998Z,38.90
2017-12-17T08:54:59.466Z,39.00
2017-12-17T08:57:27.704Z,37.23
2017-12-17T08:59:55.198Z,36.40
2017-12-17T09:02:23.430Z,36.13
2017-12-17T09:04:50.894Z,33.83
2017-12-17T09:07:18.395Z,34.60
2017-12-17T09:09:46.634Z,34.30
2017-12-17T09:12:14.106Z,33.17
2017-12-17T09:14:42.374Z,32.93
2017-12-17T09:17:10.602Z,34.47
2017-12-17T09:19:38.077Z,31.43
2017-12-17T09:22:05.550Z,36.20
2017-12-17T09:24:33.009Z,34.37
2017-12-17T09:27:00.478Z,31.70
2017-12-17T09:29:27.947Z,32.67
2017-12-17T09:31:56.296Z,33.63
2017-12-17T09:34:23.979Z,31.50
2017-12-17T09:36:52.215Z,28.70
2017-12-17T09:39:19.691Z,30.97
2017-12-17T09:41:48.722Z,30.73
2017-12-17T09:44:16.972Z,31.73
2017-12-17T09:46:44.439Z,30.10
2017-12-17T09:49:13.089Z,28.33
2017-12-17T09:51:40.554Z,29.87
2017-12-17T09:54:08.139Z,29.50
2017-12-17T09:56:36.526Z,28.50
2017-12-17T09:59:04.023Z,28.60
2017-12-17T10:01:31.502Z,25.83
2017-12-17T10:03:59.014Z,26.63
2017-12-17T10:06:26.503Z,26.17
2017-12-17T10:08:53.995Z,28.80
2017-12-17T10:11:22.219Z,29.63
2017-12-17T10:13:49.695Z,26.80
2017-12-17T10:16:17.176Z,28.63
2017-12-17T10:18:44.634Z,27.60
2017-12-17T10:21:12.907Z,27.13
2017-12-17T10:23:40.368Z,27.83
2017-12-17T10:26:07.870Z,25.57
2017-12-17T10:28:35.386Z,27.63
2017-12-17T10:31:02.841Z,28.30
2017-12-17T10:33:31.074Z,27.20
2017-12-17T10:35:58.549Z,27.47
2017-12-17T10:38:26.090Z,27.27
2017-12-17T10:40:53.587Z,27.33
2017-12-17T10:43:21.051Z,28.47
2017-12-17T10:45:50.041Z,29.00
2017-12-17T10:48:18.267Z,25.10
2017-12-17T10:50:45.751Z,25.40
2017-12-17T10:53:13.316Z,24.43
2017-12-17T10:55:40.841Z,25.30
2017-12-17T10:58:08.333Z,27.20
2017-12-17T11:00:35.802Z,27.73
2017-12-17T11:03:04.023Z,28.97
2017-12-17T11:05:31.515Z,23.63
2017-12-17T11:07:59.007Z,27.73
2017-12-17T11:10:26.490Z,29.70
2017-12-17T11:12:53.983Z,27.10
2017-12-17T11:15:21.481Z,25.60
2017-12-17T11:17:49.719Z,24.73
2017-12-17T11:20:17.191Z,27.90
2017-12-17T11:22:44.650Z,27.00
2017-12-17T11:25:12.168Z,29.00
2017-12-17T11:27:39.644Z,26.90
2017-12-17T11:30:07.117Z,30.10
2017-12-17T11:32:34.583Z,28.50
2017-12-17T11:35:02.838Z,28.90
2017-12-17T11:37:30.330Z,26.87
2017-12-17T11:39:58.040Z,28.27
2017-12-17T11:42:25.572Z,26.87
2017-12-17T11:44:53.032Z,26.93
2017-12-17T11:47:20.550Z,27.57
2017-12-17T11:49:48.818Z,27.97
2017-12-17T11:52:16.290Z,28.17
2017-12-17T11:54:44.554Z,26.43
2017-12-17T11:57:12.802Z,26.40
2017-12-17T11:59:40.297Z,28.40
2017-12-17T12:02:08.548Z,28.57
2017-12-17T12:04:36.028Z,24.83
2017-12-17T12:07:05.002Z,18.17
2017-12-17T12:09:33.839Z,21.70
2017-12-17T12:12:02.290Z,25.90
2017-12-17T12:14:29.755Z,25.47
2017-12-17T12:16:57.210Z,22.10
2017-12-17T12:19:24.700Z,23.30
2017-12-17T12:21:53.625Z,25.70
2017-12-17T12:24:21.887Z,24.07
2017-12-17T12:26:51.168Z,24.00
2017-12-17T12:29:18.715Z,23.57
2017-12-17T12:31:46.192Z,23.33
2017-12-17T12:34:13.981Z,24.33
2017-12-17T12:36:41.474Z,25.93
2017-12-17T12:39:08.947Z,26.80
2017-12-17T12:41:38.846Z,26.20
2017-12-17T12:44:06.325Z,24.00
2017-12-17T12:46:34.989Z,24.53
2017-12-17T12:49:02.498Z,25.67
2017-12-17T12:51:30.749Z,25.87
2017-12-17T12:53:58.215Z,26.87
2017-12-17T12:56:25.685Z,26.27
2017-12-17T12:58:53.187Z,26.93
2017-12-17T13:01:20.647Z,28.63
2017-12-17T13:03:48.195Z,27.60
2017-12-17T13:06:15.777Z,28.83
2017-12-17T13:08:43.279Z,27.73
2017-12-17T13:11:10.745Z,28.23
2017-12-17T13:13:39.395Z,30.03
2017-12-17T13:16:06.883Z,29.43
2017-12-17T13:18:35.139Z,28.33
2017-12-17T13:21:02.601Z,27.60
2017-12-17T13:23:30.075Z,31.13
2017-12-17T13:25:58.330Z,31.23
2017-12-17T13:28:25.829Z,32.70
2017-12-17T13:30:53.287Z,32.50
2017-12-17T13:33:20.761Z,32.70
2017-12-17T13:35:48.257Z,33.60
2017-12-17T13:38:15.722Z,33.57
2017-12-17T13:40:43.219Z,32.93
2017-12-17T13:43:10.708Z,33.93
2017-12-17T13:45:38.178Z,33.27
2017-12-17T13:48:05.650Z,31.27
2017-12-17T13:50:33.113Z,31.97
2017-12-17T13:53:01.196Z,32.23
2017-12-17T13:55:29.454Z,27.43
2017-12-17T13:57:56.942Z,32.87
2017-12-17T14:00:24.428Z,30.50
2017-12-17T14:02:51.908Z,32.77
2017-12-17T14:05:19.391Z,31.90
2017-12-17T14:07:47.651Z,31.90
2017-12-17T14:10:15.103Z,31.90
2017-12-17T14:12:42.596Z,32.90
2017-12-17T14:15:10.078Z,34.23
2017-12-17T14:17:37.581Z,32.53
2017-12-17T14:20:05.107Z,31.70
2017-12-17T14:22:32.571Z,26.33
2017-12-17T14:25:00.053Z,29.70
2017-12-17T14:27:27.539Z,31.73
2017-12-17T14:29:55.005Z,28.63
2017-12-17T14:32:22.514Z,23.80
2017-12-17T14:34:50.038Z,27.20
2017-12-17T14:37:17.461Z,26.20
2017-12-17T14:39:45.699Z,26.53
2017-12-17T14:42:13.178Z,26.37
2017-12-17T14:44:40.655Z,27.47
2017-12-17T14:47:08.164Z,26.67
2017-12-17T14:49:35.628Z,26.70
2017-12-17T14:52:03.099Z,28.00
2017-12-17T14:54:31.321Z,26.87
2017-12-17T14:56:58.839Z,28.77
2017-12-17T14:59:27.090Z,28.33
2017-12-17T15:01:54.551Z,32.27
2017-12-17T15:04:22.026Z,31.20
2017-12-17T15:06:50.278Z,30.77
2017-12-17T15:09:17.764Z,26.93
2017-12-17T15:11:46.012Z,28.50
2017-12-17T15:14:13.497Z,30.60
2017-12-17T15:16:41.743Z,30.87
2017-12-17T15:19:09.228Z,30.93
2017-12-17T15:21:37.478Z,29.80
2017-12-17T15:24:04.946Z,28.80
2017-12-17T15:26:33.206Z,31.50
2017-12-17T15:29:00.688Z,31.80
2017-12-17T15:31:28.925Z,30.83
2017-12-17T15:33:56.407Z,30.30
2017-12-17T15:36:23.886Z,31.80
2017-12-17T15:38:52.135Z,31.03
2017-12-17T15:41:19.622Z,30.13
2017-12-17T15:43:47.114Z,29.70
2017-12-17T15:46:14.578Z,31.70
2017-12-17T15:48:42.071Z,27.97
2017-12-17T15:51:10.350Z,28.17
2017-12-17T15:53:38.585Z,31.20
2017-12-17T15:56:06.056Z,28.83
2017-12-17T15:58:33.529Z,27.83
2017-12-17T16:01:01.814Z,30.13
2017-12-17T16:03:30.085Z,26.53
2017-12-17T16:05:57.699Z,28.77
2017-12-17T16:08:25.173Z,30.70
2017-12-17T16:10:52.639Z,29.30
2017-12-17T16:13:20.172Z,30.20
2017-12-17T16:15:47.636Z,28.90
2017-12-17T16:18:15.117Z,29.90
2017-12-17T16:20:42.607Z,28.33
2017-12-17T16:23:10.871Z,29.67
2017-12-17T16:25:39.126Z,28.27
2017-12-17T16:28:06.592Z,28.30
2017-12-17T16:30:34.854Z,30.30
2017-12-17T16:33:02.316Z,32.07
2017-12-17T16:35:30.568Z,31.67
2017-12-17T16:37:58.139Z,32.83
2017-12-17T16:40:25.615Z,34.83
2017-12-17T16:42:53.099Z,34.87
2017-12-17T16:45:20.601Z,32.63
2017-12-17T16:47:48.077Z,34.33
2017-12-17T16:50:15.587Z,34.40
2017-12-17T16:52:43.074Z,33.23
2017-12-17T16:55:10.685Z,32.63
2017-12-17T16:57:38.168Z,34.67
2017-12-17T17:00:05.632Z,33.70
2017-12-17T17:02:33.120Z,29.67
2017-12-17T17:05:00.623Z,30.60
2017-12-17T17:07:28.103Z,28.30
2017-12-17T17:09:55.593Z,31.83
2017-12-17T17:12:23.050Z,32.70
2017-12-17T17:14:50.553Z,30.70
2017-12-17T17:17:21.776Z,28.33
2017-12-17T17:19:49.332Z,30.03
2017-12-17T17:22:17.566Z,29.70
2017-12-17T17:24:45.063Z,28.90
2017-12-17T17:27:13.304Z,29.00
2017-12-17T17:29:40.780Z,26.90
2017-12-17T17:32:09.019Z,27.77
2017-12-17T17:34:36.517Z,27.27
2017-12-17T17:37:04.740Z,28.07
2017-12-17T17:39:32.219Z,26.03
2017-12-17T17:41:59.697Z,27.33
2017-12-17T17:44:27.298Z,27.83
2017-12-17T17:46:54.792Z,27.13
2017-12-17T17:49:22.286Z,25.97
2017-12-17T17:51:50.575Z,25.10
2017-12-17T17:54:18.043Z,26.17
2017-12-17T17:56:45.528Z,26.40
2017-12-17T17:59:13.020Z,24.93
2017-12-17T18:01:40.478Z,26.03
2017-12-17T18:04:08.894Z,23.70
2017-12-17T18:06:36.386Z,25.57
2017-12-17T18:09:03.961Z,25.50
2017-12-17T18:11:31.431Z,26.03
2017-12-17T18:13:59.671Z,25.47
2017-12-17T18:16:27.182Z,26.63
2017-12-17T18:18:54.667Z,25.63
2017-12-17T18:21:22.156Z,25.13
2017-12-17T18:23:50.428Z,26.80
2017-12-17T18:26:17.916Z,25.23
2017-12-17T18:28:46.157Z,26.87
2017-12-17T18:31:13.649Z,23.77
2017-12-17T18:33:41.879Z,25.87
2017-12-17T18:36:09.365Z,26.37
2017-12-17T18:38:36.830Z,26.10
2017-12-17T18:41:05.079Z,24.57
2017-12-17T18:43:32.546Z,24.80
2017-12-17T18:46:00.116Z,24.60
2017-12-17T18:48:28.354Z,24.20
2017-12-17T18:50:55.862Z,24.17
2017-12-17T18:53:24.090Z,23.07
2017-12-17T18:55:51.585Z,22.50
2017-12-17T18:58:19.807Z,23.07
2017-12-17T19:00:47.288Z,23.60
2017-12-17T19:03:15.139Z,22.90
2017-12-17T19:05:42.615Z,25.27
2017-12-17T19:08:10.080Z,20.57
2017-12-17T19:10:37.571Z,21.90
2017-12-17T19:13:05.034Z,22.20
2017-12-17T19:15:33.263Z,22.40
2017-12-17T19:18:00.726Z,23.60
2017-12-17T19:20:28.224Z,20.30
2017-12-17T19:22:55.710Z,22.17
2017-12-17T19:25:23.179Z,20.80
2017-12-17T19:27:50.662Z,21.63
2017-12-17T19:30:18.936Z,19.70
2017-12-17T19:32:46.406Z,21.43
2017-12-17T19:35:14.643Z,18.57
2017-12-17T19:37:42.150Z,21.00
2017-12-17T19:40:09.614Z,18.27
2017-12-17T19:42:37.862Z,20.73
2017-12-17T19:45:06.142Z,17.57
2017-12-17T19:47:34.391Z,19.27
2017-12-17T19:50:03.412Z,19.47
2017-12-17T19:52:31.650Z,18.50
2017-12-17T19:54:59.123Z,26.63
2017-12-17T19:57:26.626Z,19.67
2017-12-17T19:59:54.116Z,20.90
2017-12-17T20:02:21.586Z,18.17
2017-12-17T20:04:49.087Z,16.60
2017-12-17T20:09:51.568Z,17.70
2017-12-17T20:12:19.042Z,17.70
2017-12-17T20:14:46.516Z,17.23
2017-12-17T20:17:14.000Z,14.90
2017-12-17T20:19:41.487Z,17.13
2017-12-17T20:22:09.888Z,16.43
2017-12-17T20:24:37.347Z,17.80
2017-12-17T20:27:05.803Z,16.27
2017-12-17T20:29:34.090Z,16.27
2017-12-17T20:32:01.571Z,15.07
2017-12-17T20:34:29.034Z,15.17
2017-12-17T20:36:56.500Z,12.97
2017-12-17T20:39:23.992Z,13.30
2017-12-17T20:41:51.463Z,12.97
2017-12-17T20:44:20.021Z,14.43
2017-12-17T20:46:48.313Z,12.40
2017-12-17T20:49:16.928Z,11.90
2017-12-17T20:51:44.395Z,10.87
2017-12-17T20:54:12.496Z,11.43
2017-12-17T20:56:40.767Z,11.40
2017-12-17T20:59:08.254Z,10.00
2017-12-17T21:01:36.635Z,10.47
2017-12-17T21:04:05.512Z,10.10
2017-12-17T21:06:33.082Z,10.00
2017-12-17T21:09:02.255Z,9.20
2017-12-17T21:11:30.834Z,10.60
2017-12-17T21:13:58.284Z,9.83
2017-12-17T21:16:26.428Z,9.90
2017-12-17T21:18:53.942Z,8.40
2017-12-17T21:21:22.195Z,8.30
2017-12-17T21:23:49.650Z,9.57
2017-12-17T21:26:17.955Z,9.73
2017-12-17T21:28:46.203Z,7.50
2017-12-17T21:31:13.682Z,8.70
2017-12-17T21:33:41.926Z,7.53
2017-12-17T21:36:09.423Z,7.70
2017-12-17T21:38:37.674Z,7.80
2017-12-17T21:41:05.177Z,7.07
2017-12-17T21:43:32.671Z,7.60
2017-12-17T21:46:00.142Z,8.27
2017-12-17T21:48:27.621Z,7.87
2017-12-17T21:50:55.859Z,7.50
2017-12-17T21:53:23.334Z,5.93
2017-12-17T21:55:50.845Z,9.60
2017-12-17T21:58:18.298Z,6.53
2017-12-17T22:00:45.801Z,7.17
2017-12-17T22:03:13.290Z,5.97
2017-12-17T22:05:41.515Z,8.13
2017-12-17T22:08:09.459Z,7.13
2017-12-17T22:10:36.921Z,8.20
2017-12-17T22:13:04.422Z,7.27
2017-12-17T22:15:32.651Z,5.80
2017-12-17T22:18:00.142Z,7.70
2017-12-17T22:20:27.598Z,8.03
2017-12-17T22:22:55.078Z,8.07
2017-12-17T22:25:23.313Z,7.90
2017-12-17T22:27:51.946Z,7.20
2017-12-17T22:30:20.191Z,7.03
2017-12-17T22:32:47.670Z,7.17
2017-12-17T22:35:15.896Z,8.80
2017-12-17T22:37:43.378Z,8.87
2017-12-17T22:40:10.850Z,9.13
2017-12-17T22:42:38.299Z,8.77
2017-12-17T22:45:05.792Z,7.57
2017-12-17T22:47:33.246Z,10.10
2017-12-17T22:50:00.754Z,11.60
2017-12-17T22:52:28.210Z,8.03
2017-12-17T22:54:55.686Z,10.00
2017-12-17T22:57:23.915Z,8.07
2017-12-17T22:59:51.403Z,7.73
2017-12-17T23:02:18.875Z,6.53
2017-12-17T23:04:47.120Z,7.90
2017-12-17T23:07:14.582Z,9.57
2017-12-17T23:09:42.835Z,7.07
2017-12-17T23:12:10.296Z,7.30
2017-12-17T23:14:37.782Z,7.73
2017-12-17T23:17:05.270Z,7.13
2017-12-17T23:19:32.751Z,7.50
2017-12-17T23:22:00.239Z,7.72
2017-12-17T23:24:27.707Z,6.85
2017-12-17T23:26:55.189Z,7.12
2017-12-17T23:29:22.691Z,6.93
2017-12-17T23:31:50.171Z,7.85
2017-12-17T23:34:17.644Z,8.45
2017-12-17T23:36:45.891Z,7.28
2017-12-17T23:39:13.410Z,7.62
2017-12-17T23:41:40.865Z,6.57
2017-12-17T23:44:08.343Z,8.73
2017-12-17T23:46:35.823Z,9.23
2017-12-17T23:49:03.299Z,8.75
2017-12-17T23:51:30.784Z,7.43
2017-12-17T23:53:58.263Z,8.02
2017-12-17T23:56:25.765Z,8.00
2017-12-17T23:58:53.219Z,8.35
